EDT,Max TemperatureF,Mean TemperatureF,Min TemperatureF,Max Dew PointF,MeanDew PointF,Min DewpointF,Max Humidity, Mean Humidity, Min Humidity, Max Sea Level PressureIn, Mean Sea Level PressureIn, Min Sea Level PressureIn, Max VisibilityMiles, Mean VisibilityMiles, Min VisibilityMiles, Max Wind SpeedMPH, Mean Wind SpeedMPH, Max Gust SpeedMPH,PrecipitationIn, CloudCover, Events, WindDirDegrees
2013-3-1,44,40,35,36,31,25,93,76,49,29.67,29.58,29.51,10,10,7,10,3,20,0.00,7,,335
2013-3-2,43,38,34,28,26,25,70,61,49,29.68,29.65,29.62,10,10,10,10,6,17,0.00,7,,290
2013-3-3,41,36,32,29,26,24,87,68,51,29.64,29.60,29.55,10,9,5,9,4,,0.00,7,Snow,289
2013-3-4,42,35,28,27,22,20,85,58,43,29.72,29.63,29.58,10,10,10,23,11,28,0.00,4,,298
2013-3-5,46,38,30,31,26,21,92,66,51,30.06,29.93,29.74,10,10,10,13,7,20,0.00,5,,347
2013-3-6,42,38,33,36,34,30,100,85,66,30.04,29.99,29.92,10,7,2,28,12,44,0.02,8,Rain,46
2013-3-7,36,34,33,34,32,30,96,90,86,29.93,29.89,29.87,4,2,0,23,18,43,0.76,8,Fog-Snow,18
2013-3-8,37,35,33,32,31,27,93,88,65,30.06,29.94,29.86,10,2,0,18,14,32,0.45,7,Fog-Rain-Snow,10
2013-3-9,41,36,30,28,28,26,92,72,57,30.32,30.21,30.07,10,10,7,20,11,25,0.00,1,,15
2013-3-10,45,38,30,32,30,28,92,79,56,30.40,30.35,30.32,10,9,6,10,5,,0.00,4,,87
2013-3-11,48,42,36,40,36,32,89,83,71,30.33,30.26,30.18,10,10,8,12,7,17,0.00,8,,185
2013-3-12,54,48,43,52,48,41,97,92,83,30.17,29.92,29.75,10,5,2,25,13,37,1.19,7,Rain,172
2013-3-13,54,43,32,49,34,20,96,68,33,29.79,29.75,29.70,10,10,9,15,6,24,0.09,3,Rain,296
2013-3-14,37,31,25,27,16,5,88,53,37,29.84,29.78,29.73,10,10,10,20,8,31,0.00,5,,289
2013-3-15,41,31,21,27,14,6,70,50,26,29.88,29.78,29.67,10,10,10,17,9,23,0.00,2,,269
2013-3-16,39,34,28,25,18,9,70,52,28,29.86,29.80,29.71,10,10,10,16,8,,0.00,3,,259
2013-3-17,41,33,27,23,13,3,75,46,23,30.30,30.04,29.87,10,10,10,16,5,26,0.00,1,,304
2013-3-18,36,28,19,25,12,-2,70,49,34,30.45,30.35,30.22,10,10,9,14,6,,0.00,2,,93
2013-3-19,39,34,30,39,32,25,100,91,70,30.21,29.87,29.53,10,3,0,16,12,24,0.71,8,Fog-Rain-Snow,54
2013-3-20,43,34,28,28,21,15,89,62,38,29.82,29.76,29.68,10,10,2,20,10,30,0.00,3,Snow,280
2013-3-21,39,32,27,28,26,19,93,83,48,29.83,29.66,29.60,10,4,0,12,4,16,0.23,7,Fog-Snow,2
2013-3-22,39,32,25,28,21,16,93,65,41,29.76,29.66,29.60,10,8,1,20,7,30,0.00,5,Snow,291
2013-3-23,45,38,30,24,19,16,70,50,32,29.79,29.73,29.66,10,10,10,23,12,32,0.00,2,,283
2013-3-24,50,39,30,28,22,18,82,56,32,29.83,29.78,29.73,10,10,10,14,10,20,0.00,1,,268
2013-3-25,48,38,30,34,29,23,93,73,42,29.75,29.58,29.47,10,10,4,25,8,36,0.03,4,Rain,33
2013-3-26,50,40,33,32,28,21,93,70,36,29.78,29.61,29.47,10,8,2,14,7,28,0.04,6,Rain-Snow,321
2013-3-27,55,40,28,30,22,19,72,45,27,29.86,29.79,29.74,10,10,10,15,5,22,0.00,4,,303
2013-3-28,48,42,37,36,33,26,93,75,44,30.02,29.91,29.84,10,10,6,13,6,22,0.01,8,Rain,338
2013-3-29,57,46,37,33,31,28,76,56,37,30.04,30.02,29.98,10,10,9,13,3,,0.00,4,Rain,285
2013-3-30,57,46,33,31,27,16,85,52,19,30.10,30.05,30.00,10,10,10,13,5,20,0.00,4,,298
2013-3-31,57,42,28,45,33,25,93,69,33,30.13,29.99,29.74,10,8,2,18,6,28,0.20,3,Rain,158